Finike, Turkey
Current Conditions -  °F | °C
As of 7:50 PM on Monday 22 Dec 2014 (Local Time) from LTAI Reporting Station
Clear Clear  
Wind Chill: 50°   Ceiling: Unl
Heat Index: 50°   Visibility: 6mi
Dew Point: 21°   Wind: 7mph
Humidity: 32%   Direction: 330°NNW
Pressure: 30.12"   Gusts: NA
Location:  36.3°N, 30.14°E
Report Text: LTAI 221650Z 33006KT 290V350 CAVOK 10/M06 Q1020 NOSIG
Loading
Personal Weather Stations






























Interactive Weather Map New forecast layout! Learn more

10-Day Weather Forecast

Advertisements
Track Severe Weather on mobile